Time;durP1;ratioP1;P1;durP2;ratioP2;P2;SDS_P1;SDS_P2;PMS_P1;PMS_P2;Temp;Humidity;BMP_temperature;BMP_pressure;BME280_temperature;BME280_humidity;BME280_pressure;Samples;Min_cycle;Max_cycle;Signal;HPM_P1;HPM_P2
2022/06/07 00:01:06;;;;;;;3.42;2.15;;;15.80;99.90;;;;;;5009954;28;20509;-79
2022/06/07 00:03:32;;;;;;;4.93;2.30;;;15.70;99.90;;;;;;5002261;28;20053;-79
2022/06/07 00:05:58;;;;;;;6.20;2.20;;;15.70;99.90;;;;;;5010733;28;20045;-79
2022/06/07 00:08:23;;;;;;;2.25;2.05;;;15.60;99.90;;;;;;5012776;28;20034;-78
2022/06/07 00:10:50;;;;;;;2.53;2.05;;;15.60;99.90;;;;;;4994081;28;20036;-79
2022/06/07 00:13:17;;;;;;;6.85;2.53;;;15.60;99.90;;;;;;5011667;28;20038;-79
2022/06/07 00:15:43;;;;;;;2.38;2.17;;;15.50;99.90;;;;;;5005040;28;20564;-78
2022/06/07 00:18:10;;;;;;;3.33;2.20;;;15.50;99.90;;;;;;4992370;28;20035;-79
2022/06/07 00:20:38;;;;;;;2.47;2.28;;;15.40;99.90;;;;;;4992665;28;20041;-78
2022/06/07 00:23:12;;;;;;;3.00;2.35;;;15.40;99.90;;;;;;5000053;28;20121;-79
2022/06/07 00:25:39;;;;;;;2.87;2.37;;;15.40;99.90;;;;;;5010996;28;20165;-79
2022/06/07 00:28:06;;;;;;;2.63;1.92;;;15.40;99.90;;;;;;5009246;28;20034;-79
2022/06/07 00:30:32;;;;;;;3.35;2.33;;;15.50;99.90;;;;;;5008799;28;20083;-79
2022/06/07 00:32:58;;;;;;;2.88;2.63;;;15.40;99.90;;;;;;4994113;28;20027;-78
2022/06/07 00:35:25;;;;;;;3.15;2.85;;;15.40;99.90;;;;;;5008657;28;20149;-78
2022/06/07 00:37:51;;;;;;;3.72;2.42;;;15.40;99.90;;;;;;5009183;28;20030;-78
2022/06/07 00:40:18;;;;;;;2.13;1.85;;;15.30;99.90;;;;;;4991621;28;20044;-79
2022/06/07 00:42:44;;;;;;;2.65;2.45;;;15.30;99.90;;;;;;5009167;28;20023;-79
2022/06/07 00:45:18;;;;;;;4.07;2.60;;;15.30;99.90;;;;;;5005181;28;20084;-78
2022/06/07 00:47:44;;;;;;;3.95;2.40;;;15.20;99.90;;;;;;4983627;28;20037;-78
2022/06/07 00:50:28;;;;;;;2.28;2.08;;;15.20;99.90;;;;;;5017677;28;20033;-78
2022/06/07 00:52:59;;;;;;;2.70;2.50;;;15.20;99.90;;;;;;5007059;28;20065;-79
2022/06/07 00:55:27;;;;;;;3.05;2.40;;;15.10;99.90;;;;;;5009965;28;20604;-79
2022/06/07 00:57:58;;;;;;;3.80;2.70;;;15.10;99.90;;;;;;4975568;28;20038;-79
2022/06/07 01:00:35;;;;;;;3.00;2.38;;;15.00;99.90;;;;;;5002234;28;20034;-79
2022/06/07 01:03:00;;;;;;;4.30;2.45;;;15.00;99.90;;;;;;5004693;28;20080;-78
2022/06/07 01:05:27;;;;;;;2.83;2.60;;;14.90;99.90;;;;;;5005227;28;20707;-79
2022/06/07 01:10:46;;;;;;;2.53;2.33;;;14.80;99.90;;;;;;5003297;28;20031;-79
2022/06/07 01:13:22;;;;;;;2.92;2.67;;;14.80;99.90;;;;;;4977618;28;20100;-79
2022/06/07 01:15:52;;;;;;;3.05;2.72;;;14.80;99.90;;;;;;5006984;28;20101;-78
2022/06/07 01:18:18;;;;;;;2.65;1.92;;;14.80;99.90;;;;;;5010420;28;20045;-79
2022/06/07 01:20:45;;;;;;;2.50;2.30;;;14.80;99.90;;;;;;5018277;28;20026;-79
2022/06/07 01:23:11;;;;;;;2.10;2.00;;;14.90;99.90;;;;;;4994541;28;20022;-79
2022/06/07 01:25:38;;;;;;;2.50;2.30;;;14.90;99.90;;;;;;5015673;28;20556;-79
2022/06/07 01:28:05;;;;;;;2.55;2.35;;;14.90;99.90;;;;;;5012291;28;20042;-79
2022/06/07 01:30:31;;;;;;;2.58;2.38;;;14.90;99.90;;;;;;4994315;28;20199;-79
2022/06/07 01:32:59;;;;;;;3.70;2.40;;;14.90;99.90;;;;;;4997495;28;20044;-79
2022/06/07 01:35:25;;;;;;;3.00;2.60;;;14.90;99.90;;;;;;5014667;28;20033;-79
2022/06/07 01:37:51;;;;;;;3.25;2.08;;;14.90;99.90;;;;;;4997307;28;20092;-79
2022/06/07 01:43:01;;;;;;;4.13;2.88;;;14.90;99.90;;;;;;5008302;28;20034;-79
2022/06/07 01:45:27;;;;;;;2.67;2.47;;;14.90;99.90;;;;;;4987738;28;20458;-78
2022/06/07 01:47:54;;;;;;;2.53;2.33;;;14.90;99.90;;;;;;5009784;28;20120;-79
2022/06/07 01:50:20;;;;;;;2.70;2.22;;;14.90;99.90;;;;;;5011051;28;20030;-79
2022/06/07 01:52:48;;;;;;;2.67;2.25;;;14.90;99.90;;;;;;5003071;28;20401;-79
2022/06/07 01:55:19;;;;;;;2.50;2.30;;;14.90;99.90;;;;;;5013508;28;20073;-79
2022/06/07 01:57:57;;;;;;;2.65;2.45;;;14.90;99.90;;;;;;5009482;28;20403;-79
2022/06/07 02:00:22;;;;;;;2.63;2.42;;;14.90;99.90;;;;;;5011204;28;20035;-78
2022/06/07 02:02:49;;;;;;;3.38;3.05;;;14.90;99.90;;;;;;4999851;28;20041;-79
2022/06/07 02:05:15;;;;;;;3.10;2.53;;;15.00;99.90;;;;;;5013152;28;20026;-79
2022/06/07 02:07:46;;;;;;;2.63;2.42;;;15.00;99.90;;;;;;5006926;28;20385;-79
2022/06/07 02:10:17;;;;;;;3.83;2.47;;;15.00;99.90;;;;;;4981857;28;20038;-79
2022/06/07 02:12:44;;;;;;;2.60;2.40;;;15.00;99.90;;;;;;4980784;28;20095;-79
2022/06/07 02:15:10;;;;;;;2.50;2.30;;;15.00;99.90;;;;;;4995803;28;20026;-78
2022/06/07 02:17:36;;;;;;;2.55;1.80;;;15.00;99.90;;;;;;4997706;28;20042;-79
2022/06/07 02:20:34;;;;;;;2.72;2.20;;;15.00;99.90;;;;;;5003922;28;20102;-79
2022/06/07 02:23:02;;;;;;;2.25;2.13;;;15.10;99.90;;;;;;5015619;28;20431;-79
2022/06/07 02:25:28;;;;;;;4.88;2.25;;;15.10;99.90;;;;;;5013824;28;20045;-79
2022/06/07 02:27:54;;;;;;;2.53;2.30;;;15.10;99.90;;;;;;4996209;28;20030;-79
2022/06/07 02:30:21;;;;;;;2.00;1.90;;;15.10;99.90;;;;;;5020782;28;20036;-79
2022/06/07 02:32:47;;;;;;;2.25;2.05;;;15.20;99.90;;;;;;4964388;28;20485;-79
2022/06/07 02:35:13;;;;;;;2.90;2.33;;;15.20;99.90;;;;;;5001539;28;20049;-79
2022/06/07 02:37:39;;;;;;;4.32;2.05;;;15.20;99.90;;;;;;5007220;28;20156;-79
2022/06/07 02:40:07;;;;;;;2.35;2.15;;;15.20;99.90;;;;;;5013108;28;20045;-78
2022/06/07 02:42:33;;;;;;;2.20;2.00;;;15.20;99.90;;;;;;4993833;28;20029;-79
2022/06/07 02:44:59;;;;;;;2.28;2.03;;;15.20;99.90;;;;;;5007422;28;20029;-79
2022/06/07 02:47:25;;;;;;;2.20;1.98;;;15.20;99.90;;;;;;4993842;28;20049;-79
2022/06/07 02:49:57;;;;;;;3.88;2.45;;;15.20;99.90;;;;;;5011496;28;20165;-79
2022/06/07 02:52:23;;;;;;;2.75;2.28;;;15.20;99.90;;;;;;5028979;28;20029;-79
2022/06/07 02:55:12;;;;;;;3.08;2.17;;;15.20;99.90;;;;;;5006590;28;20096;-78
2022/06/07 02:57:39;;;;;;;2.20;2.00;;;15.30;99.90;;;;;;5014147;28;20029;-79
2022/06/07 03:00:11;;;;;;;2.30;2.10;;;15.20;99.90;;;;;;4986906;28;20045;-79
2022/06/07 03:02:37;;;;;;;2.25;1.70;;;15.20;99.90;;;;;;4996416;28;20057;-78
2022/06/07 03:05:03;;;;;;;5.70;2.65;;;15.20;99.90;;;;;;5009337;28;20034;-78
2022/06/07 03:07:29;;;;;;;3.03;2.20;;;15.20;99.90;;;;;;5012878;28;20161;-79
2022/06/07 03:09:56;;;;;;;2.40;1.90;;;15.20;99.90;;;;;;4990026;28;20031;-79
2022/06/07 03:12:22;;;;;;;2.60;1.90;;;15.20;99.90;;;;;;5010754;28;20038;-79
2022/06/07 03:14:48;;;;;;;2.50;2.30;;;15.20;99.90;;;;;;4994779;28;20034;-80
2022/06/07 03:17:16;;;;;;;2.58;2.38;;;15.20;99.90;;;;;;5009682;28;20049;-80
2022/06/07 03:19:41;;;;;;;2.60;2.38;;;15.20;99.90;;;;;;5031503;28;20037;-79
2022/06/07 03:22:07;;;;;;;2.13;1.92;;;15.20;99.90;;;;;;4995675;28;20128;-80
2022/06/07 03:24:35;;;;;;;2.53;1.85;;;15.10;99.90;;;;;;5017275;28;20026;-80
2022/06/07 03:27:02;;;;;;;2.10;2.00;;;15.20;99.90;;;;;;4999660;28;20026;-79
2022/06/07 03:29:28;;;;;;;2.85;2.40;;;15.10;99.90;;;;;;4979279;28;20120;-79
2022/06/07 03:31:55;;;;;;;2.15;1.95;;;15.10;99.90;;;;;;4995581;28;20397;-79
2022/06/07 03:34:25;;;;;;;2.47;2.28;;;15.10;99.90;;;;;;4995472;28;20076;-79
2022/06/07 03:36:51;;;;;;;4.18;1.95;;;15.10;99.90;;;;;;5024399;28;20057;-79
2022/06/07 03:39:19;;;;;;;2.90;1.70;;;15.10;99.90;;;;;;5014175;28;20041;-79
2022/06/07 03:41:56;;;;;;;2.33;1.98;;;15.10;99.90;;;;;;4996281;28;20037;-79
2022/06/07 03:44:26;;;;;;;1.85;1.75;;;15.10;99.90;;;;;;4993484;28;20034;-79
2022/06/07 03:46:57;;;;;;;1.98;1.85;;;15.10;99.90;;;;;;5002765;28;20053;-80
2022/06/07 03:49:23;;;;;;;1.70;1.60;;;15.10;99.90;;;;;;5028912;28;20408;-80
2022/06/07 03:51:52;;;;;;;4.10;1.48;;;15.10;99.90;;;;;;5014712;28;20116;-80
2022/06/07 03:54:19;;;;;;;2.95;2.05;;;15.10;99.90;;;;;;5017017;28;20042;-80
2022/06/07 03:56:47;;;;;;;2.15;1.58;;;15.10;99.90;;;;;;5015096;28;20038;-80
2022/06/07 03:59:14;;;;;;;3.10;1.58;;;15.10;99.90;;;;;;5008761;28;20030;-80
2022/06/07 04:01:40;;;;;;;4.15;2.40;;;15.10;99.90;;;;;;4998508;28;20555;-80
2022/06/07 04:04:08;;;;;;;3.28;1.80;;;15.10;99.90;;;;;;4997915;28;20038;-80
2022/06/07 04:06:40;;;;;;;1.70;1.60;;;15.10;99.90;;;;;;5007891;28;20492;-80
2022/06/07 04:09:12;;;;;;;2.30;1.45;;;15.10;99.90;;;;;;5006945;28;20454;-80
2022/06/07 04:11:43;;;;;;;1.45;1.35;;;15.10;99.90;;;;;;5023914;28;20500;-80
2022/06/07 04:14:09;;;;;;;2.63;1.63;;;15.10;99.90;;;;;;5012155;28;20045;-79
2022/06/07 04:16:36;;;;;;;1.50;1.40;;;15.10;99.90;;;;;;5004385;28;20121;-79
2022/06/07 04:19:09;;;;;;;4.63;1.90;;;15.10;99.90;;;;;;5026319;28;20030;-80
2022/06/07 04:21:35;;;;;;;2.42;1.98;;;15.10;99.90;;;;;;5022961;28;20044;-79
2022/06/07 04:24:19;;;;;;;2.17;1.83;;;15.10;99.90;;;;;;4991913;28;20026;-79
2022/06/07 04:26:45;;;;;;;3.17;1.95;;;15.10;99.90;;;;;;4993513;28;20473;-79
2022/06/07 04:29:14;;;;;;;3.72;2.38;;;15.10;99.90;;;;;;4995000;28;20022;-79
2022/06/07 04:31:40;;;;;;;2.58;1.92;;;15.10;99.90;;;;;;5012602;28;20034;-79
2022/06/07 04:34:10;;;;;;;4.13;1.88;;;15.10;99.90;;;;;;4992013;28;20034;-79
2022/06/07 04:36:38;;;;;;;2.10;1.90;;;15.10;99.90;;;;;;5019044;28;20099;-79
2022/06/07 04:39:06;;;;;;;2.20;1.95;;;15.10;99.90;;;;;;5014528;28;20030;-78
2022/06/07 04:41:40;;;;;;;2.05;1.92;;;15.10;99.90;;;;;;5018337;28;20140;-79
2022/06/07 04:44:09;;;;;;;3.85;1.90;;;15.20;99.90;;;;;;5008244;28;20032;-79
2022/06/07 04:46:35;;;;;;;2.00;1.83;;;15.10;99.90;;;;;;5005884;28;20105;-79
2022/06/07 04:49:04;;;;;;;2.50;2.30;;;15.10;99.90;;;;;;5009653;28;20045;-79
2022/06/07 04:51:36;;;;;;;3.30;2.17;;;15.10;99.90;;;;;;4992478;28;20058;-79
2022/06/07 04:54:12;;;;;;;2.47;1.90;;;15.10;99.90;;;;;;4962477;28;20030;-79
2022/06/07 04:56:41;;;;;;;3.25;2.10;;;15.20;99.90;;;;;;4994457;28;20033;-79
2022/06/07 04:59:09;;;;;;;2.30;2.10;;;15.20;99.90;;;;;;4985305;28;20121;-78
2022/06/07 05:01:40;;;;;;;2.38;2.20;;;15.20;99.90;;;;;;4974918;28;20516;-79
2022/06/07 05:04:11;;;;;;;2.15;1.95;;;15.20;99.90;;;;;;5007570;28;20034;-79
2022/06/07 05:06:42;;;;;;;2.30;2.10;;;15.20;99.90;;;;;;4993338;28;20034;-79
2022/06/07 05:09:22;;;;;;;2.40;2.15;;;15.20;99.90;;;;;;4995705;28;20030;-79
2022/06/07 05:11:53;;;;;;;3.47;2.30;;;15.30;99.90;;;;;;5007593;28;20080;-79
2022/06/07 05:14:21;;;;;;;1.98;1.85;;;15.30;99.90;;;;;;5027370;28;20030;-79
2022/06/07 05:16:48;;;;;;;2.85;2.25;;;15.40;99.90;;;;;;5014096;28;20098;-79
2022/06/07 05:19:19;;;;;;;3.78;2.00;;;15.40;99.90;;;;;;5010175;28;20026;-78
2022/06/07 05:21:48;;;;;;;2.42;2.22;;;15.50;99.90;;;;;;5004345;28;20030;-80
2022/06/07 05:24:14;;;;;;;2.67;2.10;;;15.60;99.90;;;;;;5012769;28;20026;-79
2022/06/07 05:26:54;;;;;;;2.22;1.92;;;15.70;99.90;;;;;;5010765;28;20157;-79
2022/06/07 05:29:31;;;;;;;3.65;1.80;;;15.70;99.90;;;;;;5000285;28;20516;-79
2022/06/07 05:31:58;;;;;;;1.95;1.80;;;15.80;99.90;;;;;;4991101;28;20061;-79
2022/06/07 05:34:24;;;;;;;2.30;2.10;;;15.80;99.90;;;;;;4991058;28;20042;-78
2022/06/07 05:36:53;;;;;;;3.08;1.85;;;15.80;99.90;;;;;;5022446;28;20125;-79
2022/06/07 05:39:27;;;;;;;2.20;1.95;;;15.80;99.90;;;;;;5006199;28;20126;-78
2022/06/07 05:41:57;;;;;;;1.80;1.70;;;15.80;99.90;;;;;;5008269;28;20366;-79
2022/06/07 05:44:25;;;;;;;3.25;2.00;;;15.80;99.90;;;;;;5002876;28;20030;-78
2022/06/07 05:46:53;;;;;;;2.00;1.90;;;15.80;99.90;;;;;;4999807;28;20556;-79
2022/06/07 05:49:37;;;;;;;1.85;1.75;;;15.80;99.90;;;;;;4978523;28;20041;-80
2022/06/07 05:52:07;;;;;;;2.83;1.85;;;15.80;99.90;;;;;;5017002;28;20117;-79
2022/06/07 05:54:35;;;;;;;1.80;1.70;;;15.90;99.90;;;;;;5014983;28;20172;-79
2022/06/07 05:57:02;;;;;;;1.67;1.58;;;15.90;99.90;;;;;;4994507;28;20038;-79
2022/06/07 05:59:29;;;;;;;1.83;1.58;;;16.00;99.90;;;;;;4989236;28;20034;-79
2022/06/07 06:01:54;;;;;;;2.10;1.90;;;16.00;99.90;;;;;;5014333;28;20026;-79
2022/06/07 06:04:25;;;;;;;1.70;1.60;;;16.00;99.90;;;;;;5004659;28;20469;-79
2022/06/07 06:06:55;;;;;;;1.35;1.25;;;16.10;99.90;;;;;;4993780;28;20030;-79
2022/06/07 06:12:07;;;;;;;1.48;1.38;;;16.20;99.90;;;;;;5009654;28;20484;-79
2022/06/07 06:14:55;;;;;;;2.28;1.35;;;16.20;99.90;;;;;;5000313;28;20022;-79
2022/06/07 06:17:25;;;;;;;1.73;1.63;;;16.20;99.90;;;;;;4987611;28;20092;-79
2022/06/07 06:19:56;;;;;;;1.70;1.60;;;16.20;99.90;;;;;;4988227;28;20049;-79
2022/06/07 06:22:22;;;;;;;1.40;1.30;;;16.10;99.90;;;;;;5001071;28;20102;-80
2022/06/07 06:24:59;;;;;;;1.60;1.50;;;16.10;99.90;;;;;;4989533;28;20065;-79
2022/06/07 06:27:25;;;;;;;1.85;1.60;;;16.10;99.90;;;;;;4993365;28;20120;-77
2022/06/07 06:29:56;;;;;;;1.58;1.38;;;16.10;99.90;;;;;;5009876;28;20034;-77
2022/06/07 06:32:22;;;;;;;2.78;1.27;;;16.10;99.90;;;;;;5010685;28;20026;-77
2022/06/07 06:34:50;;;;;;;2.67;1.38;;;16.20;99.90;;;;;;4977383;28;20041;-78
2022/06/07 06:37:16;;;;;;;1.83;1.33;;;16.20;99.90;;;;;;4987725;28;20037;-78
2022/06/07 06:39:44;;;;;;;2.55;1.63;;;16.20;99.90;;;;;;5009828;28;20038;-78
2022/06/07 06:42:11;;;;;;;2.10;1.50;;;16.30;99.90;;;;;;4984684;28;20476;-78
2022/06/07 06:45:04;;;;;;;1.08;0.98;;;16.30;99.90;;;;;;4998951;28;20113;-78
2022/06/07 06:47:30;;;;;;;1.88;1.30;;;16.40;99.90;;;;;;4995880;28;20118;-78
2022/06/07 06:49:56;;;;;;;5.57;1.45;;;16.50;99.90;;;;;;4986319;28;20117;-78
2022/06/07 06:52:22;;;;;;;1.42;1.33;;;16.60;99.90;;;;;;4988897;28;20026;-78
2022/06/07 06:54:48;;;;;;;1.38;1.23;;;16.60;99.90;;;;;;4995294;28;20556;-78
2022/06/07 06:57:21;;;;;;;1.80;1.52;;;16.70;99.90;;;;;;5009448;28;20032;-79
2022/06/07 06:59:46;;;;;;;1.80;1.50;;;16.80;99.90;;;;;;4994567;28;20483;-78
2022/06/07 07:02:14;;;;;;;3.10;1.60;;;16.90;99.90;;;;;;5002142;28;20053;-78
2022/06/07 07:04:48;;;;;;;1.52;1.20;;;17.00;99.90;;;;;;5008269;28;20026;-78
2022/06/07 07:07:14;;;;;;;1.80;1.42;;;17.00;99.90;;;;;;5007569;28;20495;-78
2022/06/07 07:09:40;;;;;;;2.15;1.50;;;17.10;99.90;;;;;;5013213;28;20042;-78
2022/06/07 07:12:10;;;;;;;2.10;1.65;;;17.20;99.90;;;;;;5005062;28;20584;-77
2022/06/07 07:14:39;;;;;;;1.65;1.55;;;17.20;99.90;;;;;;5007794;28;20045;-79
2022/06/07 07:17:08;;;;;;;1.63;1.30;;;17.30;99.90;;;;;;4991299;28;20618;-78
2022/06/07 07:19:35;;;;;;;1.33;1.20;;;17.50;99.90;;;;;;5011681;28;20030;-77
2022/06/07 07:22:07;;;;;;;3.42;1.40;;;17.60;99.90;;;;;;4993906;28;20489;-80
2022/06/07 07:24:34;;;;;;;3.90;1.65;;;17.60;99.90;;;;;;4994524;28;20076;-79
2022/06/07 07:27:03;;;;;;;1.25;1.17;;;17.70;99.90;;;;;;4979767;28;20069;-79
2022/06/07 07:29:30;;;;;;;1.40;1.30;;;17.80;99.90;;;;;;4992083;28;20030;-79
2022/06/07 07:32:00;;;;;;;1.65;1.42;;;17.80;99.90;;;;;;4980808;28;20118;-79
2022/06/07 07:34:33;;;;;;;1.20;1.10;;;17.90;99.90;;;;;;5012764;28;20033;-80
2022/06/07 07:36:59;;;;;;;1.30;1.20;;;18.00;99.90;;;;;;5006741;28;20042;-80
2022/06/07 07:39:29;;;;;;;1.50;1.40;;;18.00;99.90;;;;;;5012144;28;20026;-79
2022/06/07 07:41:56;;;;;;;1.27;1.17;;;18.10;99.90;;;;;;5024609;28;20510;-80
2022/06/07 07:44:24;;;;;;;2.05;1.10;;;18.20;99.90;;;;;;4975455;28;20037;-80
2022/06/07 07:46:55;;;;;;;1.27;1.08;;;18.40;99.90;;;;;;5005194;28;20030;-80
2022/06/07 07:49:23;;;;;;;1.52;1.40;;;18.60;99.90;;;;;;5011113;28;20040;-80
2022/06/07 07:51:52;;;;;;;1.13;1.10;;;18.90;99.90;;;;;;5024641;28;20025;-79
2022/06/07 07:54:23;;;;;;;0.90;0.90;;;19.10;99.90;;;;;;4996869;28;20096;-80
2022/06/07 07:56:49;;;;;;;1.52;1.20;;;19.40;99.90;;;;;;5006581;28;20029;-80
2022/06/07 07:59:19;;;;;;;1.23;0.90;;;19.70;99.90;;;;;;4989955;28;20118;-78
2022/06/07 08:01:49;;;;;;;1.38;1.27;;;19.90;99.90;;;;;;5010127;28;20017;-80
2022/06/07 08:04:15;;;;;;;1.10;1.00;;;20.00;99.90;;;;;;5006124;28;20392;-79
2022/06/07 08:06:47;;;;;;;1.27;1.17;;;20.00;99.90;;;;;;5009650;28;20546;-80
2022/06/07 08:09:13;;;;;;;1.38;1.20;;;20.20;99.90;;;;;;5007003;28;20025;-80
2022/06/07 08:11:41;;;;;;;0.95;0.85;;;20.30;99.90;;;;;;4991714;28;20081;-79
2022/06/07 08:14:09;;;;;;;1.30;0.90;;;20.70;99.90;;;;;;5027238;28;20036;-80
2022/06/07 08:16:35;;;;;;;1.00;0.90;;;21.20;99.90;;;;;;4997423;28;20030;-79
2022/06/07 08:19:02;;;;;;;0.85;0.85;;;21.60;99.90;;;;;;5009734;28;20026;-80
2022/06/07 08:21:30;;;;;;;0.77;0.50;;;22.00;99.90;;;;;;4991508;28;20038;-80
2022/06/07 08:23:57;;;;;;;1.02;0.65;;;22.30;99.90;;;;;;5012527;28;20029;-79
2022/06/07 08:26:25;;;;;;;1.80;0.75;;;22.40;99.20;;;;;;4991963;28;20088;-83
2022/06/07 08:28:52;;;;;;;1.67;0.93;;;22.30;99.10;;;;;;5017445;28;20493;-82
2022/06/07 08:31:21;;;;;;;0.68;0.68;;;22.10;97.30;;;;;;5000931;28;20038;-80
2022/06/07 08:39:17;;;;;;;0.80;0.73;;;21.70;99.90;;;;;;5006680;28;20038;-81
2022/06/07 08:42:10;;;;;;;1.30;0.70;;;21.80;99.90;;;;;;5005489;28;20034;-81
2022/06/07 08:44:41;;;;;;;0.77;0.70;;;21.80;98.50;;;;;;4997251;28;20503;-81
2022/06/07 08:47:25;;;;;;;0.60;0.55;;;21.60;97.80;;;;;;5010879;28;20034;-81
2022/06/07 08:49:58;;;;;;;0.50;0.50;;;21.40;99.70;;;;;;4993987;28;20428;-81
2022/06/07 08:52:29;;;;;;;0.60;0.60;;;21.20;98.80;;;;;;5009632;28;20157;-81
2022/06/07 08:54:58;;;;;;;1.60;0.90;;;21.00;99.90;;;;;;5006423;28;20034;-81
2022/06/07 08:57:30;;;;;;;1.20;0.63;;;20.80;98.70;;;;;;5032116;28;20038;-81
2022/06/07 09:00:26;;;;;;;0.52;0.52;;;20.70;99.50;;;;;;4993709;28;20035;-80
2022/06/07 09:03:30;;;;;;;1.73;0.57;;;20.60;99.80;;;;;;4985953;28;20073;-80
2022/06/07 09:06:01;;;;;;;1.30;0.80;;;20.50;98.70;;;;;;5000161;28;20057;-80
2022/06/07 09:08:49;;;;;;;0.60;0.60;;;20.60;99.90;;;;;;5014178;28;20038;-80
2022/06/07 09:14:26;;;;;;;1.23;0.90;;;20.90;97.80;;;;;;5019201;28;20026;-81
2022/06/07 09:16:55;;;;;;;0.85;0.70;;;21.10;99.20;;;;;;5000991;28;20038;-82
2022/06/07 09:19:25;;;;;;;3.17;0.63;;;21.20;98.30;;;;;;5016964;28;20034;-80
2022/06/07 09:21:52;;;;;;;1.60;0.68;;;21.40;99.10;;;;;;5018401;28;20572;-81
2022/06/07 09:24:31;;;;;;;2.50;0.50;;;21.50;98.40;;;;;;5005518;28;20052;-81
2022/06/07 09:27:06;;;;;;;0.52;0.40;;;21.60;98.10;;;;;;5010623;28;20026;-81
2022/06/07 09:29:38;;;;;;;0.50;0.50;;;21.60;96.40;;;;;;5014588;28;20033;-81
2022/06/07 09:32:10;;;;;;;2.72;0.60;;;21.50;96.60;;;;;;4991920;28;20034;-80
2022/06/07 09:34:46;;;;;;;1.00;0.52;;;21.40;95.60;;;;;;5007435;28;20049;-81
2022/06/07 09:37:16;;;;;;;1.38;0.60;;;21.30;95.40;;;;;;5005499;28;20385;-80
2022/06/07 09:39:43;;;;;;;1.17;0.50;;;21.10;95.80;;;;;;5016676;28;20030;-80
2022/06/07 09:42:24;;;;;;;1.05;0.50;;;21.10;96.70;;;;;;5008646;28;20033;-80
2022/06/07 09:45:08;;;;;;;0.50;0.50;;;21.10;93.80;;;;;;5008994;28;20045;-81
2022/06/07 09:47:33;;;;;;;1.10;0.60;;;21.10;95.50;;;;;;5010489;28;20527;-81
2022/06/07 09:50:25;;;;;;;0.60;0.57;;;21.20;98.70;;;;;;4994754;28;20038;-81
2022/06/07 09:52:57;;;;;;;0.82;0.50;;;21.20;97.40;;;;;;4993595;28;20042;-81
2022/06/07 09:55:55;;;;;;;0.40;0.40;;;21.20;96.80;;;;;;5000186;28;20233;-81
2022/06/07 09:58:30;;;;;;;0.52;0.43;;;21.20;94.90;;;;;;4995401;28;20030;-80
2022/06/07 10:01:25;;;;;;;0.47;0.47;;;21.30;96.00;;;;;;5000110;28;20029;-81
2022/06/07 10:04:05;;;;;;;0.23;0.23;;;21.40;97.20;;;;;;5005454;28;20473;-80
2022/06/07 10:06:35;;;;;;;1.35;0.77;;;21.60;94.60;;;;;;4997335;28;20034;-79
2022/06/07 10:09:33;;;;;;;2.05;0.60;;;21.60;94.20;;;;;;5009238;28;20045;-81
2022/06/07 10:12:12;;;;;;;1.60;0.40;;;21.60;95.00;;;;;;5009979;28;20034;-81
2022/06/07 10:14:44;;;;;;;0.80;0.50;;;21.70;93.90;;;;;;5010395;28;20038;-81
2022/06/07 10:17:18;;;;;;;0.43;0.43;;;21.60;94.00;;;;;;5017279;28;20060;-81
2022/06/07 10:19:48;;;;;;;0.50;0.40;;;21.50;94.70;;;;;;5002117;28;20193;-81
2022/06/07 10:22:20;;;;;;;1.25;0.68;;;21.40;93.90;;;;;;5009589;28;20048;-82
2022/06/07 10:24:59;;;;;;;0.70;0.60;;;21.30;91.50;;;;;;5020038;28;20053;-82
2022/06/07 10:27:50;;;;;;;0.52;0.47;;;21.20;92.30;;;;;;5025331;28;20053;-81
2022/06/07 10:30:29;;;;;;;0.63;0.52;;;21.10;95.30;;;;;;5036597;28;20454;-81
2022/06/07 10:32:58;;;;;;;2.53;0.45;;;21.00;94.80;;;;;;5000836;28;20026;-81
2022/06/07 10:35:42;;;;;;;0.68;0.40;;;21.10;95.60;;;;;;5012276;28;20034;-80
2022/06/07 10:38:33;;;;;;;0.68;0.40;;;21.20;95.10;;;;;;5030451;28;20073;-80
2022/06/07 10:41:05;;;;;;;2.10;0.50;;;21.20;93.90;;;;;;5019202;28;20109;-80
2022/06/07 10:43:51;;;;;;;0.50;0.40;;;21.20;90.40;;;;;;5013536;28;20107;-79
2022/06/07 10:46:20;;;;;;;0.40;0.40;;;21.30;92.70;;;;;;5015532;28;20038;-80
2022/06/07 10:48:51;;;;;;;1.02;0.70;;;21.30;95.00;;;;;;5017999;28;20046;-81
2022/06/07 10:54:21;;;;;;;2.75;0.77;;;21.50;93.20;;;;;;5011654;28;20092;-80
2022/06/07 10:57:05;;;;;;;2.63;0.50;;;21.60;92.00;;;;;;5024618;28;20026;-80
2022/06/07 10:59:33;;;;;;;3.15;0.70;;;21.50;92.30;;;;;;5005646;28;20025;-81
2022/06/07 11:02:31;;;;;;;0.50;0.50;;;21.40;91.80;;;;;;5017166;28;20804;-80
2022/06/07 11:11:14;;;;;;;0.43;0.43;;;21.60;93.10;;;;;;5004343;28;20038;-77
2022/06/07 11:13:49;;;;;;;2.15;0.50;;;21.80;93.30;;;;;;5010026;28;20072;-79
2022/06/07 11:16:24;;;;;;;;;;;21.80;92.00;;;;;;5013206;28;20088;-80
2022/06/07 11:18:50;;;;;;;2.35;0.50;;;21.90;93.40;;;;;;5009287;28;19921;-80
2022/06/07 11:21:29;;;;;;;0.52;0.52;;;22.10;93.70;;;;;;5005678;28;20022;-80
2022/06/07 11:24:18;;;;;;;0.63;0.55;;;22.20;93.30;;;;;;5010349;28;20385;-80
2022/06/07 11:26:50;;;;;;;0.60;0.50;;;22.20;91.70;;;;;;5006371;28;20026;-80
2022/06/07 11:29:25;;;;;;;0.95;0.40;;;22.20;91.70;;;;;;5000856;28;20033;-80
2022/06/07 11:31:51;;;;;;;1.10;0.50;;;22.20;91.30;;;;;;5023294;28;20026;-79
2022/06/07 11:34:34;;;;;;;0.73;0.50;;;22.10;88.60;;;;;;4980871;28;20058;-80
2022/06/07 11:37:09;;;;;;;0.50;0.35;;;22.10;90.50;;;;;;5009409;28;20034;-80
2022/06/07 11:39:40;;;;;;;1.17;0.60;;;22.10;89.40;;;;;;4995243;28;20022;-79
2022/06/07 11:42:30;;;;;;;0.40;0.40;;;22.00;91.30;;;;;;4996199;28;20117;-80
2022/06/07 11:45:05;;;;;;;0.50;0.50;;;22.00;91.50;;;;;;5009690;28;20420;-80
2022/06/07 11:48:08;;;;;;;6.53;0.60;;;22.10;91.80;;;;;;4994030;28;20057;-80
2022/06/07 11:50:45;;;;;;;0.93;0.47;;;22.20;91.90;;;;;;5024810;28;20313;-79
2022/06/07 11:53:31;;;;;;;0.75;0.50;;;22.30;86.40;;;;;;5009021;28;20400;-79
2022/06/07 11:56:23;;;;;;;0.40;0.40;;;22.20;90.70;;;;;;5009610;28;20029;-79
2022/06/07 11:58:55;;;;;;;0.55;0.40;;;22.20;90.70;;;;;;4997780;28;20034;-79
2022/06/07 12:01:36;;;;;;;0.40;0.30;;;22.10;90.70;;;;;;5016584;28;20026;-79
2022/06/07 12:04:48;;;;;;;0.75;0.43;;;22.10;89.50;;;;;;5014477;28;20089;-79
2022/06/07 12:07:35;;;;;;;1.17;0.50;;;21.90;91.10;;;;;;5003945;28;20101;-79
2022/06/07 12:10:22;;;;;;;0.40;0.40;;;21.70;90.80;;;;;;5011891;28;20034;-78
2022/06/07 12:12:56;;;;;;;1.10;0.50;;;21.40;89.50;;;;;;5018510;28;20100;-79
2022/06/07 12:15:37;;;;;;;0.45;0.40;;;21.20;90.90;;;;;;5006087;28;20042;-79
2022/06/07 12:18:26;;;;;;;0.77;0.40;;;21.00;91.60;;;;;;5016578;28;20038;-79
2022/06/07 12:21:02;;;;;;;0.50;0.50;;;20.70;90.90;;;;;;5016305;28;20034;-79
2022/06/07 12:23:41;;;;;;;0.52;0.35;;;20.60;92.10;;;;;;5033438;28;20481;-79
2022/06/07 12:26:20;;;;;;;0.50;0.50;;;20.60;91.50;;;;;;5016208;28;20038;-79
2022/06/07 12:29:13;;;;;;;0.52;0.52;;;20.50;91.40;;;;;;5009746;28;20089;-79
2022/06/07 12:31:48;;;;;;;0.47;0.47;;;20.40;91.50;;;;;;5012192;28;20045;-79
2022/06/07 12:34:36;;;;;;;0.60;0.50;;;20.40;92.80;;;;;;5005763;28;20385;-79
2022/06/07 12:37:24;;;;;;;1.00;0.30;;;20.40;93.20;;;;;;5007430;28;20034;-80
2022/06/07 12:39:57;;;;;;;0.40;0.40;;;20.40;93.20;;;;;;4992978;28;20397;-80
2022/06/07 12:42:27;;;;;;;0.73;0.40;;;20.40;93.50;;;;;;5018363;28;20026;-79
2022/06/07 12:44:56;;;;;;;0.30;0.30;;;20.30;94.20;;;;;;4979045;28;20026;-80
2022/06/07 12:47:33;;;;;;;1.10;0.40;;;20.30;92.90;;;;;;5010006;28;20037;-79
2022/06/07 12:50:00;;;;;;;0.73;0.50;;;20.30;94.10;;;;;;4999647;28;20117;-80
2022/06/07 12:52:29;;;;;;;0.35;0.30;;;20.30;95.20;;;;;;5008355;28;20042;-79
2022/06/07 12:55:01;;;;;;;1.08;0.40;;;20.40;93.40;;;;;;4993820;28;20604;-80
2022/06/07 12:57:31;;;;;;;1.35;0.50;;;20.50;94.80;;;;;;5014926;28;20555;-80
2022/06/07 13:00:14;;;;;;;1.25;0.50;;;20.50;92.90;;;;;;5003985;28;20440;-79
2022/06/07 13:02:43;;;;;;;2.35;0.40;;;20.40;94.20;;;;;;5010404;28;20026;-80
2022/06/07 13:05:16;;;;;;;1.73;0.50;;;20.50;94.70;;;;;;5003780;28;20463;-78
2022/06/07 13:07:48;;;;;;;0.32;0.32;;;20.80;95.60;;;;;;5002171;28;20030;-78
2022/06/07 13:10:29;;;;;;;0.40;0.40;;;21.10;92.20;;;;;;5002535;28;20517;-80
2022/06/07 13:12:57;;;;;;;1.27;0.60;;;21.30;93.90;;;;;;5005116;28;20037;-79
2022/06/07 13:15:51;;;;;;;1.00;0.50;;;21.50;91.70;;;;;;5001259;28;20088;-80
2022/06/07 13:18:35;;;;;;;1.02;0.50;;;21.70;91.70;;;;;;5014729;28;20047;-80
2022/06/07 13:21:20;;;;;;;0.57;0.57;;;21.90;91.50;;;;;;5012660;28;20160;-79
2022/06/07 13:23:52;;;;;;;0.50;0.50;;;22.10;86.70;;;;;;4993483;28;20484;-79
2022/06/07 13:26:30;;;;;;;3.00;0.60;;;22.20;93.00;;;;;;5026138;28;20043;-79
2022/06/07 13:29:18;;;;;;;0.45;0.45;;;22.50;92.50;;;;;;5009815;28;20469;-79
2022/06/07 13:31:49;;;;;;;0.47;0.47;;;22.90;89.10;;;;;;5019984;28;20764;-79
2022/06/07 13:34:30;;;;;;;0.65;0.40;;;23.00;83.00;;;;;;5016125;28;20026;-80
2022/06/07 13:37:19;;;;;;;0.60;0.60;;;22.70;87.60;;;;;;5016817;28;20202;-79
2022/06/07 13:40:15;;;;;;;1.60;0.50;;;22.60;90.20;;;;;;5015767;28;20040;-80